sensor_id;sensor_type;location;lat;lon;timestamp;pressure;altitude;pressure_sealevel;temperature;humidity
46366;BME280;72328;49.570;8.722;2024-01-10T00:03:56;100753.28;;;2.38;44.49
46366;BME280;72328;49.570;8.722;2024-01-10T00:07:57;100748.25;;;2.35;45.15
46366;BME280;72328;49.570;8.722;2024-01-10T00:11:58;100739.00;;;2.31;45.06
46366;BME280;72328;49.570;8.722;2024-01-10T00:15:59;100738.22;;;2.27;45.34
46366;BME280;72328;49.570;8.722;2024-01-10T00:20:00;100739.09;;;2.26;44.99
46366;BME280;72328;49.570;8.722;2024-01-10T00:24:00;100735.78;;;2.21;45.20
46366;BME280;72328;49.570;8.722;2024-01-10T00:28:01;100732.50;;;2.16;44.87
46366;BME280;72328;49.570;8.722;2024-01-10T00:32:01;100735.91;;;2.14;45.26
46366;BME280;72328;49.570;8.722;2024-01-10T00:36:02;100728.44;;;2.06;45.07
46366;BME280;72328;49.570;8.722;2024-01-10T00:40:03;100733.53;;;2.05;44.95
46366;BME280;72328;49.570;8.722;2024-01-10T00:44:04;100731.94;;;1.99;44.74
46366;BME280;72328;49.570;8.722;2024-01-10T00:48:05;100725.25;;;1.94;45.32
46366;BME280;72328;49.570;8.722;2024-01-10T00:52:06;100731.31;;;1.87;45.32
46366;BME280;72328;49.570;8.722;2024-01-10T00:56:06;100723.78;;;1.82;45.17
46366;BME280;72328;49.570;8.722;2024-01-10T01:00:08;100719.59;;;1.80;45.26
46366;BME280;72328;49.570;8.722;2024-01-10T01:04:13;100723.00;;;1.77;45.21
46366;BME280;72328;49.570;8.722;2024-01-10T01:08:13;100712.09;;;1.72;45.27
46366;BME280;72328;49.570;8.722;2024-01-10T01:12:14;100718.84;;;1.73;45.09
46366;BME280;72328;49.570;8.722;2024-01-10T01:16:15;100721.34;;;1.75;45.15
46366;BME280;72328;49.570;8.722;2024-01-10T01:20:15;100717.97;;;1.74;45.47
46366;BME280;72328;49.570;8.722;2024-01-10T01:24:16;100717.09;;;1.75;45.15
46366;BME280;72328;49.570;8.722;2024-01-10T01:28:16;100717.94;;;1.76;46.02
46366;BME280;72328;49.570;8.722;2024-01-10T01:32:17;100704.44;;;1.74;45.13
46366;BME280;72328;49.570;8.722;2024-01-10T01:36:18;100710.38;;;1.73;45.07
46366;BME280;72328;49.570;8.722;2024-01-10T01:40:20;100704.50;;;1.71;45.56
46366;BME280;72328;49.570;8.722;2024-01-10T01:44:20;100723.03;;;1.74;45.56
46366;BME280;72328;49.570;8.722;2024-01-10T01:48:22;100716.22;;;1.78;45.60
46366;BME280;72328;49.570;8.722;2024-01-10T01:52:24;100717.88;;;1.79;45.51
46366;BME280;72328;49.570;8.722;2024-01-10T01:56:25;100717.09;;;1.77;45.85
46366;BME280;72328;49.570;8.722;2024-01-10T02:00:25;100722.13;;;1.78;46.21
46366;BME280;72328;49.570;8.722;2024-01-10T02:04:26;100713.66;;;1.79;46.29
46366;BME280;72328;49.570;8.722;2024-01-10T02:08:27;100712.78;;;1.82;45.91
46366;BME280;72328;49.570;8.722;2024-01-10T02:12:27;100707.66;;;1.85;45.51
46366;BME280;72328;49.570;8.722;2024-01-10T02:16:28;100708.44;;;1.88;45.65
46366;BME280;72328;49.570;8.722;2024-01-10T02:20:29;100705.91;;;1.88;45.94
46366;BME280;72328;49.570;8.722;2024-01-10T02:24:34;100700.81;;;1.88;45.04
46366;BME280;72328;49.570;8.722;2024-01-10T02:28:35;100696.53;;;1.90;45.51
46366;BME280;72328;49.570;8.722;2024-01-10T02:32:36;100700.75;;;1.91;45.83
46366;BME280;72328;49.570;8.722;2024-01-10T02:36:37;100691.44;;;1.93;46.00
46366;BME280;72328;49.570;8.722;2024-01-10T02:40:37;100695.63;;;1.96;45.52
46366;BME280;72328;49.570;8.722;2024-01-10T02:44:38;100699.81;;;1.98;45.52
46366;BME280;72328;49.570;8.722;2024-01-10T02:48:39;100694.78;;;1.95;46.07
46366;BME280;72328;49.570;8.722;2024-01-10T02:52:41;100686.28;;;1.96;45.46
46366;BME280;72328;49.570;8.722;2024-01-10T02:56:41;100679.50;;;1.98;45.85
46366;BME280;72328;49.570;8.722;2024-01-10T03:00:42;100671.00;;;1.99;45.80
46366;BME280;72328;49.570;8.722;2024-01-10T03:04:43;100670.13;;;2.02;45.45
46366;BME280;72328;49.570;8.722;2024-01-10T03:08:45;100673.56;;;1.99;46.05
46366;BME280;72328;49.570;8.722;2024-01-10T03:12:45;100659.22;;;1.97;45.48
46366;BME280;72328;49.570;8.722;2024-01-10T03:16:46;100665.94;;;1.99;46.28
46366;BME280;72328;49.570;8.722;2024-01-10T03:20:47;100661.75;;;1.97;45.99
46366;BME280;72328;49.570;8.722;2024-01-10T03:24:48;100655.81;;;1.96;45.53
46366;BME280;72328;49.570;8.722;2024-01-10T03:28:48;100666.84;;;1.95;45.84
46366;BME280;72328;49.570;8.722;2024-01-10T03:32:49;100646.56;;;1.92;45.69
46366;BME280;72328;49.570;8.722;2024-01-10T03:36:50;100648.28;;;1.92;45.59
46366;BME280;72328;49.570;8.722;2024-01-10T03:40:51;100647.44;;;1.91;45.44
46366;BME280;72328;49.570;8.722;2024-01-10T03:44:51;100649.13;;;1.92;46.21
46366;BME280;72328;49.570;8.722;2024-01-10T03:48:52;100644.03;;;1.92;45.57
46366;BME280;72328;49.570;8.722;2024-01-10T03:52:53;100650.75;;;1.95;45.48
46366;BME280;72328;49.570;8.722;2024-01-10T03:56:53;100653.25;;;1.99;45.92
46366;BME280;72328;49.570;8.722;2024-01-10T04:00:54;100648.13;;;2.01;45.46
46366;BME280;72328;49.570;8.722;2024-01-10T04:04:54;100646.34;;;2.06;46.33
46366;BME280;72328;49.570;8.722;2024-01-10T04:08:55;100648.84;;;2.07;46.03
46366;BME280;72328;49.570;8.722;2024-01-10T04:12:56;100650.47;;;2.11;45.04
46366;BME280;72328;49.570;8.722;2024-01-10T04:16:56;100641.84;;;2.18;45.66
46366;BME280;72328;49.570;8.722;2024-01-10T04:20:57;100639.28;;;2.21;45.40
46366;BME280;72328;49.570;8.722;2024-01-10T04:24:58;100645.97;;;2.25;45.53
46366;BME280;72328;49.570;8.722;2024-01-10T04:29:02;100640.81;;;2.28;45.66
46366;BME280;72328;49.570;8.722;2024-01-10T04:33:03;100644.13;;;2.32;45.76
46366;BME280;72328;49.570;8.722;2024-01-10T04:37:04;100641.53;;;2.36;45.99
46366;BME280;72328;49.570;8.722;2024-01-10T04:41:07;100638.13;;;2.37;45.57
46366;BME280;72328;49.570;8.722;2024-01-10T04:45:08;100645.72;;;2.39;45.27
46366;BME280;72328;49.570;8.722;2024-01-10T04:49:08;100643.06;;;2.43;45.27
46366;BME280;72328;49.570;8.722;2024-01-10T04:53:12;100648.91;;;2.47;45.69
46366;BME280;72328;49.570;8.722;2024-01-10T04:57:13;100640.41;;;2.49;45.61
46366;BME280;72328;49.570;8.722;2024-01-10T05:01:13;100639.50;;;2.52;44.88
46366;BME280;72328;49.570;8.722;2024-01-10T05:05:14;100635.28;;;2.52;45.31
46366;BME280;72328;49.570;8.722;2024-01-10T05:09:15;100644.59;;;2.50;45.26
46366;BME280;72328;49.570;8.722;2024-01-10T05:13:16;100651.34;;;2.53;45.35
46366;BME280;72328;49.570;8.722;2024-01-10T05:17:16;100652.16;;;2.55;45.69
46366;BME280;72328;49.570;8.722;2024-01-10T05:21:17;100647.91;;;2.55;45.55
46366;BME280;72328;49.570;8.722;2024-01-10T05:25:18;100655.53;;;2.55;45.52
46366;BME280;72328;49.570;8.722;2024-01-10T05:29:18;100653.81;;;2.56;45.06
46366;BME280;72328;49.570;8.722;2024-01-10T05:33:20;100645.34;;;2.57;45.73
46366;BME280;72328;49.570;8.722;2024-01-10T05:37:21;100648.72;;;2.57;45.57
46366;BME280;72328;49.570;8.722;2024-01-10T05:41:22;100642.00;;;2.55;45.57
46366;BME280;72328;49.570;8.722;2024-01-10T05:45:23;100644.50;;;2.56;45.05
46366;BME280;72328;49.570;8.722;2024-01-10T05:49:24;100643.63;;;2.57;45.51
46366;BME280;72328;49.570;8.722;2024-01-10T05:53:24;100648.72;;;2.57;45.57
46366;BME280;72328;49.570;8.722;2024-01-10T05:57:25;100654.69;;;2.56;45.21
46366;BME280;72328;49.570;8.722;2024-01-10T06:01:25;100647.09;;;2.53;45.23
46366;BME280;72328;49.570;8.722;2024-01-10T06:05:26;100652.09;;;2.58;45.71
46366;BME280;72328;49.570;8.722;2024-01-10T06:09:27;100648.72;;;2.57;45.36
46366;BME280;72328;49.570;8.722;2024-01-10T06:13:27;100639.44;;;2.56;45.16
46366;BME280;72328;49.570;8.722;2024-01-10T06:17:28;100642.75;;;2.58;45.54
46366;BME280;72328;49.570;8.722;2024-01-10T06:21:32;100644.47;;;2.58;45.19
46366;BME280;72328;49.570;8.722;2024-01-10T06:25:32;100651.25;;;2.59;45.36
46366;BME280;72328;49.570;8.722;2024-01-10T06:29:33;100647.84;;;2.58;45.59
46366;BME280;72328;49.570;8.722;2024-01-10T06:33:34;100652.97;;;2.55;45.20
46366;BME280;72328;49.570;8.722;2024-01-10T06:37:35;100650.44;;;2.55;44.98
46366;BME280;72328;49.570;8.722;2024-01-10T06:41:35;100650.50;;;2.54;45.55
46366;BME280;72328;49.570;8.722;2024-01-10T06:45:36;100653.81;;;2.56;45.82
46366;BME280;72328;49.570;8.722;2024-01-10T06:49:36;100653.81;;;2.57;45.56
46366;BME280;72328;49.570;8.722;2024-01-10T06:53:37;100654.59;;;2.59;45.40
46366;BME280;72328;49.570;8.722;2024-01-10T06:57:38;100651.25;;;2.57;45.32
46366;BME280;72328;49.570;8.722;2024-01-10T07:01:39;100658.91;;;2.56;45.82
46366;BME280;72328;49.570;8.722;2024-01-10T07:05:40;100657.22;;;2.56;45.50
46366;BME280;72328;49.570;8.722;2024-01-10T07:09:40;100669.84;;;2.59;45.73
46366;BME280;72328;49.570;8.722;2024-01-10T07:13:41;100666.44;;;2.60;45.02
46366;BME280;72328;49.570;8.722;2024-01-10T07:17:42;100679.13;;;2.62;45.55
46366;BME280;72328;49.570;8.722;2024-01-10T07:21:43;100684.28;;;2.59;45.39
46366;BME280;72328;49.570;8.722;2024-01-10T07:25:44;100680.88;;;2.58;45.68
46366;BME280;72328;49.570;8.722;2024-01-10T07:29:44;100691.81;;;2.62;45.68
46366;BME280;72328;49.570;8.722;2024-01-10T07:33:46;100696.03;;;2.63;45.39
46366;BME280;72328;49.570;8.722;2024-01-10T07:37:47;100703.63;;;2.64;45.32
46366;BME280;72328;49.570;8.722;2024-01-10T07:41:47;100703.63;;;2.66;46.13
46366;BME280;72328;49.570;8.722;2024-01-10T07:45:50;100706.13;;;2.67;46.25
46366;BME280;72328;49.570;8.722;2024-01-10T07:49:51;100719.63;;;2.71;45.57
46366;BME280;72328;49.570;8.722;2024-01-10T07:53:51;100721.28;;;2.72;45.64
46366;BME280;72328;49.570;8.722;2024-01-10T07:57:52;100716.97;;;2.75;45.92
46366;BME280;72328;49.570;8.722;2024-01-10T08:01:56;100727.09;;;2.78;45.68
46366;BME280;72328;49.570;8.722;2024-01-10T08:06:00;100722.00;;;2.78;45.95
46366;BME280;72328;49.570;8.722;2024-01-10T08:10:01;100727.84;;;2.83;46.42
46366;BME280;72328;49.570;8.722;2024-01-10T08:14:01;100731.91;;;2.92;45.87
46366;BME280;72328;49.570;8.722;2024-01-10T08:18:02;100732.66;;;2.97;46.19
46366;BME280;72328;49.570;8.722;2024-01-10T08:22:07;100734.22;;;3.02;45.62
46366;BME280;72328;49.570;8.722;2024-01-10T08:26:11;100737.50;;;3.06;45.66
46366;BME280;72328;49.570;8.722;2024-01-10T08:30:13;100724.72;;;3.10;46.09
46366;BME280;72328;49.570;8.722;2024-01-10T08:34:13;100724.72;;;3.10;46.20
46366;BME280;72328;49.570;8.722;2024-01-10T08:38:14;100728.09;;;3.11;46.11
46366;BME280;72328;49.570;8.722;2024-01-10T08:42:15;100730.63;;;3.11;45.77
46366;BME280;72328;49.570;8.722;2024-01-10T08:46:15;100722.09;;;3.13;46.31
46366;BME280;72328;49.570;8.722;2024-01-10T08:50:16;100724.63;;;3.15;46.50
46366;BME280;72328;49.570;8.722;2024-01-10T08:54:17;100730.47;;;3.18;46.17
46366;BME280;72328;49.570;8.722;2024-01-10T08:58:20;100724.53;;;3.19;46.21
46366;BME280;72328;49.570;8.722;2024-01-10T09:02:21;100728.78;;;3.19;46.25
46366;BME280;72328;49.570;8.722;2024-01-10T09:06:23;100735.50;;;3.21;46.15
46366;BME280;72328;49.570;8.722;2024-01-10T09:10:24;100731.97;;;3.27;46.24
46366;BME280;72328;49.570;8.722;2024-01-10T09:14:28;100740.41;;;3.30;46.61
46366;BME280;72328;49.570;8.722;2024-01-10T09:18:28;100740.28;;;3.35;46.60
46366;BME280;72328;49.570;8.722;2024-01-10T09:22:30;100739.38;;;3.37;46.09
46366;BME280;72328;49.570;8.722;2024-01-10T09:26:30;100748.56;;;3.44;46.35
46366;BME280;72328;49.570;8.722;2024-01-10T09:30:31;100741.66;;;3.49;46.43
46366;BME280;72328;49.570;8.722;2024-01-10T09:34:32;100748.31;;;3.56;46.26
46366;BME280;72328;49.570;8.722;2024-01-10T09:38:36;100745.63;;;3.62;46.81
46366;BME280;72328;49.570;8.722;2024-01-10T09:42:44;100747.09;;;3.72;46.72
46366;BME280;72328;49.570;8.722;2024-01-10T09:46:54;100736.59;;;3.84;47.15
46366;BME280;72328;49.570;8.722;2024-01-10T09:50:55;100747.25;;;4.00;47.41
46366;BME280;72328;49.570;8.722;2024-01-10T09:54:57;100745.25;;;4.11;47.11
46366;BME280;72328;49.570;8.722;2024-01-10T09:59:01;100739.75;;;4.27;47.58
46366;BME280;72328;49.570;8.722;2024-01-10T10:03:08;100740.09;;;4.47;47.79
46366;BME280;72328;49.570;8.722;2024-01-10T10:07:13;100740.44;;;4.66;47.83
46366;BME280;72328;49.570;8.722;2024-01-10T10:11:13;100722.16;;;4.81;48.29
46366;BME280;72328;49.570;8.722;2024-01-10T10:15:18;100720.78;;;4.98;48.17
46366;BME280;72328;49.570;8.722;2024-01-10T10:19:31;100731.38;;;5.14;47.73
46366;BME280;72328;49.570;8.722;2024-01-10T10:23:32;100736.00;;;5.30;48.23
46366;BME280;72328;49.570;8.722;2024-01-10T10:27:32;100713.22;;;5.50;47.97
46366;BME280;72328;49.570;8.722;2024-01-10T10:31:33;100710.00;;;5.71;48.32
46366;BME280;72328;49.570;8.722;2024-01-10T10:35:34;100723.41;;;6.05;48.12
46366;BME280;72328;49.570;8.722;2024-01-10T10:39:34;100722.09;;;6.90;47.07
46366;BME280;72328;49.570;8.722;2024-01-10T10:43:36;100728.44;;;7.48;46.03
46366;BME280;72328;49.570;8.722;2024-01-10T10:47:37;100721.19;;;7.14;46.88
46366;BME280;72328;49.570;8.722;2024-01-10T10:51:49;100721.84;;;7.19;47.61
46366;BME280;72328;49.570;8.722;2024-01-10T10:55:51;100722.84;;;7.38;48.01
46366;BME280;72328;49.570;8.722;2024-01-10T10:59:53;100718.50;;;7.62;48.03
46366;BME280;72328;49.570;8.722;2024-01-10T11:03:56;100719.50;;;7.99;48.16
46366;BME280;72328;49.570;8.722;2024-01-10T11:07:59;100722.75;;;8.83;47.22
46366;BME280;72328;49.570;8.722;2024-01-10T11:12:24;100716.28;;;9.84;45.22
46366;BME280;72328;49.570;8.722;2024-01-10T11:25:31;100699.38;;;9.26;47.43
46366;BME280;72328;49.570;8.722;2024-01-10T11:29:32;100696.13;;;9.22;47.57
46366;BME280;72328;49.570;8.722;2024-01-10T11:33:35;100689.09;;;9.26;47.70
46366;BME280;72328;49.570;8.722;2024-01-10T11:37:43;100686.84;;;9.37;48.07
46366;BME280;72328;49.570;8.722;2024-01-10T11:41:45;100683.59;;;9.33;47.72
46366;BME280;72328;49.570;8.722;2024-01-10T11:45:56;100679.88;;;9.39;47.67
46366;BME280;72328;49.570;8.722;2024-01-10T11:49:58;100678.59;;;9.30;47.73
46366;BME280;72328;49.570;8.722;2024-01-10T11:54:02;100676.81;;;9.14;47.56
46366;BME280;72328;49.570;8.722;2024-01-10T11:58:12;100687.72;;;9.00;47.02
46366;BME280;72328;49.570;8.722;2024-01-10T12:02:16;100679.81;;;8.86;47.27
46366;BME280;72328;49.570;8.722;2024-01-10T12:06:17;100685.16;;;8.82;47.19
46366;BME280;72328;49.570;8.722;2024-01-10T12:10:18;100691.09;;;8.82;47.58
46366;BME280;72328;49.570;8.722;2024-01-10T12:14:19;100687.09;;;8.77;47.15
46366;BME280;72328;49.570;8.722;2024-01-10T12:18:21;100680.63;;;8.68;46.86
46366;BME280;72328;49.570;8.722;2024-01-10T12:22:22;100681.94;;;8.58;46.76
46366;BME280;72328;49.570;8.722;2024-01-10T12:26:22;100680.72;;;8.47;46.90
46366;BME280;72328;49.570;8.722;2024-01-10T12:30:23;100680.69;;;8.28;46.71
46366;BME280;72328;49.570;8.722;2024-01-10T12:34:26;100680.16;;;8.20;46.92
46366;BME280;72328;49.570;8.722;2024-01-10T12:38:28;100679.38;;;8.18;47.00
46366;BME280;72328;49.570;8.722;2024-01-10T12:42:28;100672.53;;;8.19;47.19
46366;BME280;72328;49.570;8.722;2024-01-10T12:46:30;100681.53;;;8.29;47.19
46366;BME280;72328;49.570;8.722;2024-01-10T12:50:31;100672.88;;;8.31;47.18
46366;BME280;72328;49.570;8.722;2024-01-10T12:54:32;100661.25;;;8.23;46.87
46366;BME280;72328;49.570;8.722;2024-01-10T12:58:33;100666.66;;;8.15;46.86
46366;BME280;72328;49.570;8.722;2024-01-10T13:02:35;100661.53;;;8.15;46.92
46366;BME280;72328;49.570;8.722;2024-01-10T13:06:37;100654.84;;;8.13;46.77
46366;BME280;72328;49.570;8.722;2024-01-10T13:10:38;100662.22;;;8.20;47.60
46366;BME280;72328;49.570;8.722;2024-01-10T13:14:40;100668.06;;;8.24;47.24
46366;BME280;72328;49.570;8.722;2024-01-10T13:18:42;100667.91;;;8.27;47.80
46366;BME280;72328;49.570;8.722;2024-01-10T13:22:42;100667.97;;;8.25;48.03
46366;BME280;72328;49.570;8.722;2024-01-10T13:26:43;100674.56;;;8.51;47.95
46366;BME280;72328;49.570;8.722;2024-01-10T13:30:44;100672.44;;;8.79;48.45
46366;BME280;72328;49.570;8.722;2024-01-10T13:34:44;100663.72;;;9.01;48.52
46366;BME280;72328;49.570;8.722;2024-01-10T13:38:45;100666.88;;;9.25;48.72
46366;BME280;72328;49.570;8.722;2024-01-10T13:42:46;100675.78;;;9.53;48.62
46366;BME280;72328;49.570;8.722;2024-01-10T13:46:46;100666.88;;;9.77;48.50
46366;BME280;72328;49.570;8.722;2024-01-10T13:50:50;100665.81;;;9.98;48.42
46366;BME280;72328;49.570;8.722;2024-01-10T13:54:50;100673.53;;;10.15;48.28
46366;BME280;72328;49.570;8.722;2024-01-10T13:58:52;100669.53;;;10.27;48.44
46366;BME280;72328;49.570;8.722;2024-01-10T14:02:53;100672.00;;;10.45;49.32
46366;BME280;72328;49.570;8.722;2024-01-10T14:06:59;100668.56;;;10.77;49.67
46366;BME280;72328;49.570;8.722;2024-01-10T14:11:00;100673.25;;;11.17;49.59
46366;BME280;72328;49.570;8.722;2024-01-10T14:15:00;100679.63;;;11.57;49.39
46366;BME280;72328;49.570;8.722;2024-01-10T14:19:01;100674.94;;;11.79;48.76
46366;BME280;72328;49.570;8.722;2024-01-10T14:23:02;100676.44;;;11.97;48.47
46366;BME280;72328;49.570;8.722;2024-01-10T14:27:03;100668.66;;;12.12;48.30
46366;BME280;72328;49.570;8.722;2024-01-10T14:31:03;100671.69;;;12.05;48.16
46366;BME280;72328;49.570;8.722;2024-01-10T14:35:05;100678.59;;;12.04;48.94
46366;BME280;72328;49.570;8.722;2024-01-10T14:39:05;100672.25;;;12.10;49.09
46366;BME280;72328;49.570;8.722;2024-01-10T14:43:07;100679.00;;;12.26;48.92
46366;BME280;72328;49.570;8.722;2024-01-10T14:47:08;100679.66;;;12.30;48.46
46366;BME280;72328;49.570;8.722;2024-01-10T14:51:09;100682.13;;;12.31;48.26
46366;BME280;72328;49.570;8.722;2024-01-10T14:55:10;100680.19;;;12.35;47.87
46366;BME280;72328;49.570;8.722;2024-01-10T14:59:11;100683.69;;;12.34;47.11
46366;BME280;72328;49.570;8.722;2024-01-10T15:03:12;100689.19;;;12.14;45.59
46366;BME280;72328;49.570;8.722;2024-01-10T15:07:12;100698.81;;;11.82;45.39
46366;BME280;72328;49.570;8.722;2024-01-10T15:11:13;100699.16;;;11.45;44.66
46366;BME280;72328;49.570;8.722;2024-01-10T15:15:14;100703.34;;;11.01;44.65
46366;BME280;72328;49.570;8.722;2024-01-10T15:19:15;100703.56;;;10.49;44.39
46366;BME280;72328;49.570;8.722;2024-01-10T15:23:15;100714.47;;;10.03;44.39
46366;BME280;72328;49.570;8.722;2024-01-10T15:27:16;100723.88;;;9.68;44.32
46366;BME280;72328;49.570;8.722;2024-01-10T15:31:19;100737.34;;;9.38;44.43
46366;BME280;72328;49.570;8.722;2024-01-10T15:35:20;100731.81;;;9.10;44.28
46366;BME280;72328;49.570;8.722;2024-01-10T15:39:21;100742.34;;;8.85;44.20
46366;BME280;72328;49.570;8.722;2024-01-10T15:43:21;100739.03;;;8.63;44.03
46366;BME280;72328;49.570;8.722;2024-01-10T15:47:22;100742.44;;;8.44;44.02
46366;BME280;72328;49.570;8.722;2024-01-10T15:51:23;100752.00;;;8.20;43.88
46366;BME280;72328;49.570;8.722;2024-01-10T15:55:23;100746.81;;;8.00;43.77
46366;BME280;72328;49.570;8.722;2024-01-10T15:59:24;100752.81;;;7.79;43.85
46366;BME280;72328;49.570;8.722;2024-01-10T16:03:24;100741.13;;;7.51;43.44
46366;BME280;72328;49.570;8.722;2024-01-10T16:07:25;100748.31;;;7.41;43.74
46366;BME280;72328;49.570;8.722;2024-01-10T16:11:26;100755.03;;;7.22;43.62
46366;BME280;72328;49.570;8.722;2024-01-10T16:15:27;100761.66;;;7.05;43.66
46366;BME280;72328;49.570;8.722;2024-01-10T16:19:27;100762.38;;;6.85;43.57
46366;BME280;72328;49.570;8.722;2024-01-10T16:23:28;100764.72;;;6.68;43.59
46366;BME280;72328;49.570;8.722;2024-01-10T16:27:29;100766.22;;;6.49;43.62
46366;BME280;72328;49.570;8.722;2024-01-10T16:31:30;100769.28;;;6.34;43.85
46366;BME280;72328;49.570;8.722;2024-01-10T16:35:30;100767.19;;;6.21;43.75
46366;BME280;72328;49.570;8.722;2024-01-10T16:39:31;100767.66;;;6.07;43.60
46366;BME280;72328;49.570;8.722;2024-01-10T16:43:32;100778.22;;;5.97;43.63
46366;BME280;72328;49.570;8.722;2024-01-10T16:47:32;100769.25;;;5.84;43.88
46366;BME280;72328;49.570;8.722;2024-01-10T16:51:33;100778.97;;;5.71;43.45
46366;BME280;72328;49.570;8.722;2024-01-10T16:55:36;100775.94;;;5.60;43.50
46366;BME280;72328;49.570;8.722;2024-01-10T16:59:37;100768.59;;;5.50;43.58
46366;BME280;72328;49.570;8.722;2024-01-10T17:03:37;100777.41;;;5.40;43.38
46366;BME280;72328;49.570;8.722;2024-01-10T17:07:38;100781.84;;;5.33;43.90
46366;BME280;72328;49.570;8.722;2024-01-10T17:11:39;100789.69;;;5.27;44.05
46366;BME280;72328;49.570;8.722;2024-01-10T17:15:40;100773.69;;;5.22;43.77
46366;BME280;72328;49.570;8.722;2024-01-10T17:19:41;100782.41;;;5.15;43.83
46366;BME280;72328;49.570;8.722;2024-01-10T17:23:42;100785.13;;;5.09;43.89
46366;BME280;72328;49.570;8.722;2024-01-10T17:27:42;100788.66;;;5.04;43.90
46366;BME280;72328;49.570;8.722;2024-01-10T17:31:43;100793.06;;;4.99;43.57
46366;BME280;72328;49.570;8.722;2024-01-10T17:35:43;100791.50;;;4.93;43.68
46366;BME280;72328;49.570;8.722;2024-01-10T17:39:44;100785.75;;;4.87;43.76
46366;BME280;72328;49.570;8.722;2024-01-10T17:43:45;100793.56;;;4.81;44.04
46366;BME280;72328;49.570;8.722;2024-01-10T17:47:45;100786.03;;;4.76;44.23
46366;BME280;72328;49.570;8.722;2024-01-10T17:51:46;100791.25;;;4.72;43.63
46366;BME280;72328;49.570;8.722;2024-01-10T17:55:47;100793.09;;;4.67;43.96
46366;BME280;72328;49.570;8.722;2024-01-10T17:59:47;100796.69;;;4.60;43.83
46366;BME280;72328;49.570;8.722;2024-01-10T18:03:50;100812.06;;;4.57;43.78
46366;BME280;72328;49.570;8.722;2024-01-10T18:07:50;100808.81;;;4.50;44.00
46366;BME280;72328;49.570;8.722;2024-01-10T18:11:52;100810.72;;;4.44;43.67
46366;BME280;72328;49.570;8.722;2024-01-10T18:15:53;100808.28;;;4.38;43.77
46366;BME280;72328;49.570;8.722;2024-01-10T18:19:53;100809.25;;;4.34;43.56
46366;BME280;72328;49.570;8.722;2024-01-10T18:23:54;100812.78;;;4.28;43.76
46366;BME280;72328;49.570;8.722;2024-01-10T18:27:58;100816.28;;;4.24;43.84
46366;BME280;72328;49.570;8.722;2024-01-10T18:31:59;100817.28;;;4.19;44.23
46366;BME280;72328;49.570;8.722;2024-01-10T18:36:00;100810.66;;;4.12;43.63
46366;BME280;72328;49.570;8.722;2024-01-10T18:40:01;100814.94;;;4.10;44.12
46366;BME280;72328;49.570;8.722;2024-01-10T18:44:03;100817.59;;;4.05;43.99
46366;BME280;72328;49.570;8.722;2024-01-10T18:48:04;100822.78;;;4.01;44.45
46366;BME280;72328;49.570;8.722;2024-01-10T18:52:05;100818.59;;;3.98;43.69
46366;BME280;72328;49.570;8.722;2024-01-10T18:56:05;100816.13;;;3.95;43.90
46366;BME280;72328;49.570;8.722;2024-01-10T19:00:06;100814.53;;;3.91;44.08
46366;BME280;72328;49.570;8.722;2024-01-10T19:04:09;100812.13;;;3.85;43.60
46366;BME280;72328;49.570;8.722;2024-01-10T19:08:11;100814.72;;;3.82;44.31
46366;BME280;72328;49.570;8.722;2024-01-10T19:12:12;100810.53;;;3.80;44.49
46366;BME280;72328;49.570;8.722;2024-01-10T19:16:13;100808.97;;;3.74;44.26
46366;BME280;72328;49.570;8.722;2024-01-10T19:20:13;100798.84;;;3.71;43.96
46366;BME280;72328;49.570;8.722;2024-01-10T19:24:14;100807.44;;;3.67;44.36
46366;BME280;72328;49.570;8.722;2024-01-10T19:28:15;100813.47;;;3.63;43.83
46366;BME280;72328;49.570;8.722;2024-01-10T19:32:15;100810.16;;;3.60;43.63
46366;BME280;72328;49.570;8.722;2024-01-10T19:36:19;100807.69;;;3.55;44.58
46366;BME280;72328;49.570;8.722;2024-01-10T19:40:21;100809.47;;;3.52;43.93
46366;BME280;72328;49.570;8.722;2024-01-10T19:44:21;100806.22;;;3.45;43.73
46366;BME280;72328;49.570;8.722;2024-01-10T19:48:22;100808.06;;;3.40;44.00
46366;BME280;72328;49.570;8.722;2024-01-10T19:52:23;100815.75;;;3.37;44.02
46366;BME280;72328;49.570;8.722;2024-01-10T19:56:24;100814.13;;;3.33;43.91
46366;BME280;72328;49.570;8.722;2024-01-10T20:00:26;100826.03;;;3.31;44.49
46366;BME280;72328;49.570;8.722;2024-01-10T20:04:26;100818.56;;;3.24;44.60
46366;BME280;72328;49.570;8.722;2024-01-10T20:08:27;100825.34;;;3.23;44.49
46366;BME280;72328;49.570;8.722;2024-01-10T20:12:28;100839.81;;;3.21;44.19
46366;BME280;72328;49.570;8.722;2024-01-10T20:16:28;100839.88;;;3.18;43.72
46366;BME280;72328;49.570;8.722;2024-01-10T20:20:29;100845.06;;;3.12;44.12
46366;BME280;72328;49.570;8.722;2024-01-10T20:24:30;100844.34;;;3.06;44.41
46366;BME280;72328;49.570;8.722;2024-01-10T20:28:31;100854.53;;;3.06;44.68
46366;BME280;72328;49.570;8.722;2024-01-10T20:32:31;100854.59;;;3.03;44.66
46366;BME280;72328;49.570;8.722;2024-01-10T20:36:32;100858.03;;;3.00;44.80
46366;BME280;72328;49.570;8.722;2024-01-10T20:40:34;100866.56;;;2.98;43.98
46366;BME280;72328;49.570;8.722;2024-01-10T20:44:35;100862.38;;;2.94;44.51
46366;BME280;72328;49.570;8.722;2024-01-10T20:48:36;100857.38;;;2.91;44.30
46366;BME280;72328;49.570;8.722;2024-01-10T20:52:37;100864.16;;;2.89;44.32
46366;BME280;72328;49.570;8.722;2024-01-10T20:56:39;100856.56;;;2.87;44.45
46366;BME280;72328;49.570;8.722;2024-01-10T21:00:40;100852.34;;;2.86;43.92
46366;BME280;72328;49.570;8.722;2024-01-10T21:04:40;100855.75;;;2.85;44.21
46366;BME280;72328;49.570;8.722;2024-01-10T21:08:41;100852.44;;;2.83;44.36
46366;BME280;72328;49.570;8.722;2024-01-10T21:12:42;100849.06;;;2.81;44.46
46366;BME280;72328;49.570;8.722;2024-01-10T21:16:43;100847.50;;;2.74;44.67
46366;BME280;72328;49.570;8.722;2024-01-10T21:20:44;100859.34;;;2.75;44.07
46366;BME280;72328;49.570;8.722;2024-01-10T21:24:45;100851.78;;;2.72;44.15
46366;BME280;72328;49.570;8.722;2024-01-10T21:28:46;100850.16;;;2.68;44.47